Bailey Switch, Kentucky
Current Conditions -  °F | °C
As of 6:53 AM on Sunday 23 Nov 2014 (Local Time) from KLOZ Reporting Station
Clear Clear  
Wind Chill:   Ceiling: Unl
Heat Index:   Visibility: 10mi
Dew Point:   Wind: 0mph
Humidity: 68%   Direction: NA
Pressure: 30.04"   Gusts: NA
Location:  36.865°N, 83.9507°W
Report Text: KLOZ 231153Z AUTO 00000KT 10SM CLR 06/01 A3004 RMK AO2 SLP173 T00610006 10089 20061 56013
Loading
Personal Weather Stations






























Interactive Weather Map New forecast layout! Learn more

10-Day Weather Forecast

Advertisements
Track Severe Weather on mobile